sensor_id;sensor_type;location;lat;lon;timestamp;P1;durP1;ratioP1;P2;durP2;ratioP2
50309;SDS011;36207;51.850;21.698;2023-03-05T00:01:52;12.80;;;4.90;;
50309;SDS011;36207;51.850;21.698;2023-03-05T00:04:18;11.10;;;4.50;;
50309;SDS011;36207;51.850;21.698;2023-03-05T00:06:44;13.20;;;5.50;;
50309;SDS011;36207;51.850;21.698;2023-03-05T00:09:09;11.00;;;4.50;;
50309;SDS011;36207;51.850;21.698;2023-03-05T00:11:35;12.70;;;5.10;;
50309;SDS011;36207;51.850;21.698;2023-03-05T00:14:01;16.50;;;6.00;;
50309;SDS011;36207;51.850;21.698;2023-03-05T00:16:29;16.80;;;5.70;;
50309;SDS011;36207;51.850;21.698;2023-03-05T00:18:55;16.00;;;5.80;;
50309;SDS011;36207;51.850;21.698;2023-03-05T00:21:26;14.00;;;5.20;;
50309;SDS011;36207;51.850;21.698;2023-03-05T00:23:53;13.60;;;5.50;;
50309;SDS011;36207;51.850;21.698;2023-03-05T00:26:21;13.40;;;5.20;;
50309;SDS011;36207;51.850;21.698;2023-03-05T00:28:49;12.70;;;5.70;;
50309;SDS011;36207;51.850;21.698;2023-03-05T00:31:20;13.60;;;5.20;;
50309;SDS011;36207;51.850;21.698;2023-03-05T00:33:52;13.80;;;5.60;;
50309;SDS011;36207;51.850;21.698;2023-03-05T00:36:19;11.90;;;5.20;;
50309;SDS011;36207;51.850;21.698;2023-03-05T00:38:45;14.50;;;4.70;;
50309;SDS011;36207;51.850;21.698;2023-03-05T00:41:11;10.40;;;4.10;;
50309;SDS011;36207;51.850;21.698;2023-03-05T00:43:37;13.10;;;4.80;;
50309;SDS011;36207;51.850;21.698;2023-03-05T00:46:03;11.40;;;4.50;;
50309;SDS011;36207;51.850;21.698;2023-03-05T00:48:29;12.00;;;4.50;;
50309;SDS011;36207;51.850;21.698;2023-03-05T00:50:55;10.90;;;4.30;;
50309;SDS011;36207;51.850;21.698;2023-03-05T00:53:21;10.40;;;4.50;;
50309;SDS011;36207;51.850;21.698;2023-03-05T00:55:47;13.50;;;4.80;;
50309;SDS011;36207;51.850;21.698;2023-03-05T00:58:13;13.70;;;5.10;;
50309;SDS011;36207;51.850;21.698;2023-03-05T01:00:39;10.70;;;4.10;;
50309;SDS011;36207;51.850;21.698;2023-03-05T01:03:05;11.80;;;4.40;;
50309;SDS011;36207;51.850;21.698;2023-03-05T01:05:32;11.60;;;5.00;;
50309;SDS011;36207;51.850;21.698;2023-03-05T01:07:58;11.90;;;5.40;;
50309;SDS011;36207;51.850;21.698;2023-03-05T01:10:24;12.90;;;5.20;;
50309;SDS011;36207;51.850;21.698;2023-03-05T01:12:53;14.70;;;5.30;;
50309;SDS011;36207;51.850;21.698;2023-03-05T01:15:20;10.70;;;5.00;;
50309;SDS011;36207;51.850;21.698;2023-03-05T01:17:47;11.70;;;5.20;;
50309;SDS011;36207;51.850;21.698;2023-03-05T01:20:13;12.60;;;5.50;;
50309;SDS011;36207;51.850;21.698;2023-03-05T01:22:40;15.20;;;5.70;;
50309;SDS011;36207;51.850;21.698;2023-03-05T01:25:06;12.90;;;5.20;;
50309;SDS011;36207;51.850;21.698;2023-03-05T01:27:33;12.30;;;4.80;;
50309;SDS011;36207;51.850;21.698;2023-03-05T01:29:59;14.90;;;5.20;;
50309;SDS011;36207;51.850;21.698;2023-03-05T01:32:25;12.20;;;5.50;;
50309;SDS011;36207;51.850;21.698;2023-03-05T01:34:51;11.40;;;4.60;;
50309;SDS011;36207;51.850;21.698;2023-03-05T01:37:17;13.30;;;5.60;;
50309;SDS011;36207;51.850;21.698;2023-03-05T01:39:43;12.10;;;5.30;;
50309;SDS011;36207;51.850;21.698;2023-03-05T01:42:09;13.20;;;5.50;;
50309;SDS011;36207;51.850;21.698;2023-03-05T01:44:35;13.20;;;5.60;;
50309;SDS011;36207;51.850;21.698;2023-03-05T01:47:00;14.20;;;5.70;;
50309;SDS011;36207;51.850;21.698;2023-03-05T01:49:30;11.90;;;5.70;;
50309;SDS011;36207;51.850;21.698;2023-03-05T01:52:07;14.90;;;5.70;;
50309;SDS011;36207;51.850;21.698;2023-03-05T01:54:43;13.90;;;5.70;;
50309;SDS011;36207;51.850;21.698;2023-03-05T01:57:16;12.90;;;5.80;;
50309;SDS011;36207;51.850;21.698;2023-03-05T01:59:50;12.80;;;5.40;;
50309;SDS011;36207;51.850;21.698;2023-03-05T02:02:19;14.90;;;5.80;;
50309;SDS011;36207;51.850;21.698;2023-03-05T02:05:30;15.50;;;6.00;;
50309;SDS011;36207;51.850;21.698;2023-03-05T02:07:39;13.20;;;5.70;;
50309;SDS011;36207;51.850;21.698;2023-03-05T02:10:21;13.90;;;5.70;;
50309;SDS011;36207;51.850;21.698;2023-03-05T02:12:53;15.20;;;5.50;;
50309;SDS011;36207;51.850;21.698;2023-03-05T02:15:23;15.00;;;5.90;;
50309;SDS011;36207;51.850;21.698;2023-03-05T02:17:48;15.80;;;5.30;;
50309;SDS011;36207;51.850;21.698;2023-03-05T02:20:16;14.90;;;5.90;;
50309;SDS011;36207;51.850;21.698;2023-03-05T02:22:49;12.40;;;5.30;;
50309;SDS011;36207;51.850;21.698;2023-03-05T02:25:28;13.50;;;6.00;;
50309;SDS011;36207;51.850;21.698;2023-03-05T02:27:57;15.60;;;6.10;;
50309;SDS011;36207;51.850;21.698;2023-03-05T02:30:28;13.70;;;6.00;;
50309;SDS011;36207;51.850;21.698;2023-03-05T02:32:56;16.00;;;6.40;;
50309;SDS011;36207;51.850;21.698;2023-03-05T02:35:22;16.00;;;6.60;;
50309;SDS011;36207;51.850;21.698;2023-03-05T02:37:49;15.00;;;6.40;;
50309;SDS011;36207;51.850;21.698;2023-03-05T02:40:15;13.40;;;5.90;;
50309;SDS011;36207;51.850;21.698;2023-03-05T02:42:41;15.50;;;6.20;;
50309;SDS011;36207;51.850;21.698;2023-03-05T02:45:08;15.20;;;6.10;;
50309;SDS011;36207;51.850;21.698;2023-03-05T02:47:35;15.20;;;6.00;;
50309;SDS011;36207;51.850;21.698;2023-03-05T02:50:02;12.50;;;5.50;;
50309;SDS011;36207;51.850;21.698;2023-03-05T02:52:29;14.40;;;6.00;;
50309;SDS011;36207;51.850;21.698;2023-03-05T02:54:56;12.40;;;5.80;;
50309;SDS011;36207;51.850;21.698;2023-03-05T02:57:22;15.50;;;6.50;;
50309;SDS011;36207;51.850;21.698;2023-03-05T02:59:48;14.10;;;5.90;;
50309;SDS011;36207;51.850;21.698;2023-03-05T03:02:14;15.10;;;6.70;;
50309;SDS011;36207;51.850;21.698;2023-03-05T03:04:41;13.40;;;6.00;;
50309;SDS011;36207;51.850;21.698;2023-03-05T03:07:09;15.30;;;6.50;;
50309;SDS011;36207;51.850;21.698;2023-03-05T03:09:36;21.80;;;6.50;;
50309;SDS011;36207;51.850;21.698;2023-03-05T03:12:04;17.10;;;6.60;;
50309;SDS011;36207;51.850;21.698;2023-03-05T03:14:31;15.30;;;6.80;;
50309;SDS011;36207;51.850;21.698;2023-03-05T03:17:02;14.90;;;6.70;;
50309;SDS011;36207;51.850;21.698;2023-03-05T03:19:28;16.90;;;6.70;;
50309;SDS011;36207;51.850;21.698;2023-03-05T03:21:53;16.50;;;6.80;;
50309;SDS011;36207;51.850;21.698;2023-03-05T03:24:19;16.50;;;7.20;;
50309;SDS011;36207;51.850;21.698;2023-03-05T03:26:45;16.20;;;6.60;;
50309;SDS011;36207;51.850;21.698;2023-03-05T03:29:11;17.00;;;7.60;;
50309;SDS011;36207;51.850;21.698;2023-03-05T03:31:37;18.80;;;7.40;;
50309;SDS011;36207;51.850;21.698;2023-03-05T03:34:05;17.70;;;7.00;;
50309;SDS011;36207;51.850;21.698;2023-03-05T03:36:32;21.10;;;8.00;;
50309;SDS011;36207;51.850;21.698;2023-03-05T03:38:59;20.90;;;7.40;;
50309;SDS011;36207;51.850;21.698;2023-03-05T03:41:24;20.20;;;8.10;;
50309;SDS011;36207;51.850;21.698;2023-03-05T03:43:50;19.30;;;7.70;;
50309;SDS011;36207;51.850;21.698;2023-03-05T03:46:16;18.30;;;7.90;;
50309;SDS011;36207;51.850;21.698;2023-03-05T03:48:42;18.60;;;7.40;;
50309;SDS011;36207;51.850;21.698;2023-03-05T03:51:08;18.80;;;7.60;;
50309;SDS011;36207;51.850;21.698;2023-03-05T03:53:34;17.20;;;7.80;;
50309;SDS011;36207;51.850;21.698;2023-03-05T03:56:00;20.00;;;7.60;;
50309;SDS011;36207;51.850;21.698;2023-03-05T03:58:25;18.70;;;7.70;;
50309;SDS011;36207;51.850;21.698;2023-03-05T04:00:51;18.60;;;7.60;;
50309;SDS011;36207;51.850;21.698;2023-03-05T04:03:17;19.40;;;7.90;;
50309;SDS011;36207;51.850;21.698;2023-03-05T04:05:43;18.60;;;7.90;;
50309;SDS011;36207;51.850;21.698;2023-03-05T04:08:09;20.80;;;8.20;;
50309;SDS011;36207;51.850;21.698;2023-03-05T04:10:37;16.80;;;7.50;;
50309;SDS011;36207;51.850;21.698;2023-03-05T04:13:04;18.40;;;7.90;;
50309;SDS011;36207;51.850;21.698;2023-03-05T04:15:31;20.20;;;8.10;;
50309;SDS011;36207;51.850;21.698;2023-03-05T04:17:57;16.70;;;7.50;;
50309;SDS011;36207;51.850;21.698;2023-03-05T04:20:23;20.80;;;8.10;;
50309;SDS011;36207;51.850;21.698;2023-03-05T04:22:49;21.90;;;8.20;;
50309;SDS011;36207;51.850;21.698;2023-03-05T04:25:15;19.40;;;7.90;;
50309;SDS011;36207;51.850;21.698;2023-03-05T04:27:41;20.70;;;8.00;;
50309;SDS011;36207;51.850;21.698;2023-03-05T04:30:08;24.60;;;8.70;;
50309;SDS011;36207;51.850;21.698;2023-03-05T04:32:39;19.00;;;7.90;;
50309;SDS011;36207;51.850;21.698;2023-03-05T04:35:05;18.20;;;8.00;;
50309;SDS011;36207;51.850;21.698;2023-03-05T04:37:31;26.70;;;7.90;;
50309;SDS011;36207;51.850;21.698;2023-03-05T04:39:57;16.50;;;7.40;;
50309;SDS011;36207;51.850;21.698;2023-03-05T04:42:23;19.90;;;7.90;;
50309;SDS011;36207;51.850;21.698;2023-03-05T04:44:49;23.20;;;8.00;;
50309;SDS011;36207;51.850;21.698;2023-03-05T04:47:16;19.90;;;8.30;;
50309;SDS011;36207;51.850;21.698;2023-03-05T04:49:42;15.10;;;7.60;;
50309;SDS011;36207;51.850;21.698;2023-03-05T04:52:09;20.00;;;8.10;;
50309;SDS011;36207;51.850;21.698;2023-03-05T04:54:36;24.40;;;8.50;;
50309;SDS011;36207;51.850;21.698;2023-03-05T04:57:02;21.40;;;8.50;;
50309;SDS011;36207;51.850;21.698;2023-03-05T04:59:28;18.30;;;8.10;;
50309;SDS011;36207;51.850;21.698;2023-03-05T05:01:54;21.00;;;8.40;;
50309;SDS011;36207;51.850;21.698;2023-03-05T05:04:20;18.40;;;8.00;;
50309;SDS011;36207;51.850;21.698;2023-03-05T05:06:46;21.20;;;8.50;;
50309;SDS011;36207;51.850;21.698;2023-03-05T05:09:12;20.90;;;8.20;;
50309;SDS011;36207;51.850;21.698;2023-03-05T05:11:38;20.30;;;7.80;;
50309;SDS011;36207;51.850;21.698;2023-03-05T05:14:05;19.50;;;8.00;;
50309;SDS011;36207;51.850;21.698;2023-03-05T05:16:31;18.90;;;8.10;;
50309;SDS011;36207;51.850;21.698;2023-03-05T05:18:56;18.10;;;7.60;;
50309;SDS011;36207;51.850;21.698;2023-03-05T05:21:22;20.60;;;8.30;;
50309;SDS011;36207;51.850;21.698;2023-03-05T05:23:49;15.60;;;7.60;;
50309;SDS011;36207;51.850;21.698;2023-03-05T05:26:14;21.60;;;7.90;;
50309;SDS011;36207;51.850;21.698;2023-03-05T05:28:41;17.50;;;8.10;;
50309;SDS011;36207;51.850;21.698;2023-03-05T05:31:08;18.00;;;7.50;;
50309;SDS011;36207;51.850;21.698;2023-03-05T05:33:36;19.80;;;8.30;;
50309;SDS011;36207;51.850;21.698;2023-03-05T05:36:06;18.60;;;7.90;;
50309;SDS011;36207;51.850;21.698;2023-03-05T05:38:35;15.30;;;7.30;;
50309;SDS011;36207;51.850;21.698;2023-03-05T05:41:02;19.10;;;7.80;;
50309;SDS011;36207;51.850;21.698;2023-03-05T05:43:31;18.30;;;7.50;;
50309;SDS011;36207;51.850;21.698;2023-03-05T05:45:58;19.80;;;7.60;;
50309;SDS011;36207;51.850;21.698;2023-03-05T05:48:26;18.20;;;7.70;;
50309;SDS011;36207;51.850;21.698;2023-03-05T05:50:53;17.70;;;7.80;;
50309;SDS011;36207;51.850;21.698;2023-03-05T05:53:19;20.20;;;7.80;;
50309;SDS011;36207;51.850;21.698;2023-03-05T05:55:45;18.00;;;7.50;;
50309;SDS011;36207;51.850;21.698;2023-03-05T05:58:10;17.60;;;7.70;;
50309;SDS011;36207;51.850;21.698;2023-03-05T06:00:36;19.80;;;8.00;;
50309;SDS011;36207;51.850;21.698;2023-03-05T06:03:03;17.70;;;7.70;;
50309;SDS011;36207;51.850;21.698;2023-03-05T06:05:29;18.00;;;7.50;;
50309;SDS011;36207;51.850;21.698;2023-03-05T06:07:55;17.50;;;7.60;;
50309;SDS011;36207;51.850;21.698;2023-03-05T06:10:20;16.90;;;7.90;;
50309;SDS011;36207;51.850;21.698;2023-03-05T06:12:46;17.60;;;7.40;;
50309;SDS011;36207;51.850;21.698;2023-03-05T06:15:12;21.40;;;8.30;;
50309;SDS011;36207;51.850;21.698;2023-03-05T06:17:38;20.20;;;8.40;;
50309;SDS011;36207;51.850;21.698;2023-03-05T06:20:04;18.90;;;7.90;;
50309;SDS011;36207;51.850;21.698;2023-03-05T06:22:34;20.00;;;8.80;;
50309;SDS011;36207;51.850;21.698;2023-03-05T06:25:01;19.70;;;8.20;;
50309;SDS011;36207;51.850;21.698;2023-03-05T06:27:28;19.30;;;7.90;;
50309;SDS011;36207;51.850;21.698;2023-03-05T06:29:53;21.40;;;8.40;;
50309;SDS011;36207;51.850;21.698;2023-03-05T06:32:21;17.40;;;8.40;;
50309;SDS011;36207;51.850;21.698;2023-03-05T06:34:47;18.70;;;8.80;;
50309;SDS011;36207;51.850;21.698;2023-03-05T06:37:14;21.10;;;8.80;;
50309;SDS011;36207;51.850;21.698;2023-03-05T06:39:40;18.60;;;8.30;;
50309;SDS011;36207;51.850;21.698;2023-03-05T06:42:06;20.70;;;7.90;;
50309;SDS011;36207;51.850;21.698;2023-03-05T06:44:32;16.50;;;7.60;;
50309;SDS011;36207;51.850;21.698;2023-03-05T06:46:58;17.20;;;8.00;;
50309;SDS011;36207;51.850;21.698;2023-03-05T06:49:23;17.00;;;7.30;;
50309;SDS011;36207;51.850;21.698;2023-03-05T06:51:49;17.30;;;8.20;;
50309;SDS011;36207;51.850;21.698;2023-03-05T06:54:16;18.80;;;7.80;;
50309;SDS011;36207;51.850;21.698;2023-03-05T06:56:43;16.10;;;7.30;;
50309;SDS011;36207;51.850;21.698;2023-03-05T06:59:10;18.20;;;7.70;;
50309;SDS011;36207;51.850;21.698;2023-03-05T07:01:38;18.50;;;8.00;;
50309;SDS011;36207;51.850;21.698;2023-03-05T07:04:04;16.60;;;7.20;;
50309;SDS011;36207;51.850;21.698;2023-03-05T07:06:32;15.70;;;7.10;;
50309;SDS011;36207;51.850;21.698;2023-03-05T07:08:59;17.40;;;7.90;;
50309;SDS011;36207;51.850;21.698;2023-03-05T07:11:26;18.20;;;8.10;;
50309;SDS011;36207;51.850;21.698;2023-03-05T07:13:52;16.60;;;7.10;;
50309;SDS011;36207;51.850;21.698;2023-03-05T07:16:19;20.10;;;8.20;;
50309;SDS011;36207;51.850;21.698;2023-03-05T07:18:47;17.30;;;7.10;;
50309;SDS011;36207;51.850;21.698;2023-03-05T07:21:14;18.00;;;8.10;;
50309;SDS011;36207;51.850;21.698;2023-03-05T07:23:46;17.50;;;7.30;;
50309;SDS011;36207;51.850;21.698;2023-03-05T07:26:12;17.50;;;7.60;;
50309;SDS011;36207;51.850;21.698;2023-03-05T07:28:39;18.60;;;8.00;;
50309;SDS011;36207;51.850;21.698;2023-03-05T07:31:06;16.60;;;7.30;;
50309;SDS011;36207;51.850;21.698;2023-03-05T07:33:36;19.90;;;7.80;;
50309;SDS011;36207;51.850;21.698;2023-03-05T07:36:02;14.20;;;7.00;;
50309;SDS011;36207;51.850;21.698;2023-03-05T07:38:31;21.10;;;8.50;;
50309;SDS011;36207;51.850;21.698;2023-03-05T07:41:01;16.70;;;7.00;;
50309;SDS011;36207;51.850;21.698;2023-03-05T07:43:28;15.20;;;6.80;;
50309;SDS011;36207;51.850;21.698;2023-03-05T07:45:54;14.90;;;6.70;;
50309;SDS011;36207;51.850;21.698;2023-03-05T07:48:20;13.70;;;7.10;;
50309;SDS011;36207;51.850;21.698;2023-03-05T07:50:46;14.90;;;7.30;;
50309;SDS011;36207;51.850;21.698;2023-03-05T07:53:12;14.80;;;6.80;;
50309;SDS011;36207;51.850;21.698;2023-03-05T07:55:45;14.90;;;6.40;;
50309;SDS011;36207;51.850;21.698;2023-03-05T07:58:12;13.00;;;6.20;;
50309;SDS011;36207;51.850;21.698;2023-03-05T08:00:38;13.40;;;6.50;;
50309;SDS011;36207;51.850;21.698;2023-03-05T08:03:05;14.00;;;6.30;;
50309;SDS011;36207;51.850;21.698;2023-03-05T08:05:31;14.90;;;6.50;;
50309;SDS011;36207;51.850;21.698;2023-03-05T08:07:57;12.00;;;5.70;;
50309;SDS011;36207;51.850;21.698;2023-03-05T08:10:23;13.90;;;6.70;;
50309;SDS011;36207;51.850;21.698;2023-03-05T08:12:49;11.70;;;6.00;;
50309;SDS011;36207;51.850;21.698;2023-03-05T08:15:15;15.30;;;5.90;;
50309;SDS011;36207;51.850;21.698;2023-03-05T08:17:41;14.10;;;6.20;;
50309;SDS011;36207;51.850;21.698;2023-03-05T08:20:07;13.30;;;5.90;;
50309;SDS011;36207;51.850;21.698;2023-03-05T08:22:36;13.00;;;6.30;;
50309;SDS011;36207;51.850;21.698;2023-03-05T08:25:03;12.80;;;6.10;;
50309;SDS011;36207;51.850;21.698;2023-03-05T08:27:30;10.00;;;5.20;;
50309;SDS011;36207;51.850;21.698;2023-03-05T08:29:56;13.10;;;5.90;;
50309;SDS011;36207;51.850;21.698;2023-03-05T08:32:23;10.80;;;5.10;;
50309;SDS011;36207;51.850;21.698;2023-03-05T08:34:48;11.20;;;5.60;;
50309;SDS011;36207;51.850;21.698;2023-03-05T08:37:14;9.10;;;4.00;;
50309;SDS011;36207;51.850;21.698;2023-03-05T08:39:40;9.40;;;4.50;;
50309;SDS011;36207;51.850;21.698;2023-03-05T08:42:06;10.10;;;4.70;;
50309;SDS011;36207;51.850;21.698;2023-03-05T08:44:32;10.00;;;4.60;;
50309;SDS011;36207;51.850;21.698;2023-03-05T08:46:58;11.50;;;4.90;;
50309;SDS011;36207;51.850;21.698;2023-03-05T08:49:24;10.90;;;5.10;;
50309;SDS011;36207;51.850;21.698;2023-03-05T08:51:49;9.20;;;4.70;;
50309;SDS011;36207;51.850;21.698;2023-03-05T08:54:15;9.00;;;4.50;;
50309;SDS011;36207;51.850;21.698;2023-03-05T08:56:41;10.40;;;4.70;;
50309;SDS011;36207;51.850;21.698;2023-03-05T08:59:08;11.40;;;4.80;;
50309;SDS011;36207;51.850;21.698;2023-03-05T09:01:34;11.90;;;5.50;;
50309;SDS011;36207;51.850;21.698;2023-03-05T09:04:00;11.90;;;4.80;;
50309;SDS011;36207;51.850;21.698;2023-03-05T09:06:26;13.30;;;4.80;;
50309;SDS011;36207;51.850;21.698;2023-03-05T09:08:52;11.50;;;5.30;;
50309;SDS011;36207;51.850;21.698;2023-03-05T09:11:19;11.30;;;5.20;;
50309;SDS011;36207;51.850;21.698;2023-03-05T09:13:45;10.50;;;4.80;;
50309;SDS011;36207;51.850;21.698;2023-03-05T09:16:12;13.10;;;4.70;;
50309;SDS011;36207;51.850;21.698;2023-03-05T09:18:40;7.90;;;3.90;;
50309;SDS011;36207;51.850;21.698;2023-03-05T09:21:07;8.10;;;4.00;;
50309;SDS011;36207;51.850;21.698;2023-03-05T09:23:35;7.90;;;3.60;;
50309;SDS011;36207;51.850;21.698;2023-03-05T09:26:03;11.00;;;4.00;;
50309;SDS011;36207;51.850;21.698;2023-03-05T09:28:30;8.80;;;4.30;;
50309;SDS011;36207;51.850;21.698;2023-03-05T09:30:56;9.90;;;4.30;;
50309;SDS011;36207;51.850;21.698;2023-03-05T09:33:22;8.90;;;4.40;;
50309;SDS011;36207;51.850;21.698;2023-03-05T09:35:48;11.50;;;4.60;;
50309;SDS011;36207;51.850;21.698;2023-03-05T09:38:14;10.40;;;5.00;;
50309;SDS011;36207;51.850;21.698;2023-03-05T09:40:47;10.50;;;4.80;;
50309;SDS011;36207;51.850;21.698;2023-03-05T09:43:29;11.60;;;4.70;;
50309;SDS011;36207;51.850;21.698;2023-03-05T09:49:01;10.20;;;4.40;;
50309;SDS011;36207;51.850;21.698;2023-03-05T09:51:39;12.30;;;5.30;;
50309;SDS011;36207;51.850;21.698;2023-03-05T09:57:19;13.20;;;5.20;;
50309;SDS011;36207;51.850;21.698;2023-03-05T10:02:27;13.00;;;5.50;;
50309;SDS011;36207;51.850;21.698;2023-03-05T10:07:45;13.60;;;5.40;;
50309;SDS011;36207;51.850;21.698;2023-03-05T10:10:23;12.00;;;5.90;;
50309;SDS011;36207;51.850;21.698;2023-03-05T10:13:04;12.10;;;5.80;;
50309;SDS011;36207;51.850;21.698;2023-03-05T10:15:41;15.10;;;5.90;;
50309;SDS011;36207;51.850;21.698;2023-03-05T10:20:54;17.10;;;7.10;;
50309;SDS011;36207;51.850;21.698;2023-03-05T10:34:31;12.90;;;6.50;;
50309;SDS011;36207;51.850;21.698;2023-03-05T10:39:53;13.50;;;6.50;;
50309;SDS011;36207;51.850;21.698;2023-03-05T10:42:45;16.30;;;6.70;;
50309;SDS011;36207;51.850;21.698;2023-03-05T10:45:31;15.90;;;7.00;;
50309;SDS011;36207;51.850;21.698;2023-03-05T10:48:03;14.30;;;6.80;;
50309;SDS011;36207;51.850;21.698;2023-03-05T10:50:52;15.10;;;6.20;;
50309;SDS011;36207;51.850;21.698;2023-03-05T10:53:39;16.30;;;6.80;;
50309;SDS011;36207;51.850;21.698;2023-03-05T10:56:15;13.30;;;6.60;;
50309;SDS011;36207;51.850;21.698;2023-03-05T10:58:45;15.60;;;6.40;;
50309;SDS011;36207;51.850;21.698;2023-03-05T11:01:31;14.50;;;6.80;;
50309;SDS011;36207;51.850;21.698;2023-03-05T11:04:01;15.40;;;7.10;;
50309;SDS011;36207;51.850;21.698;2023-03-05T11:06:48;15.80;;;7.00;;
50309;SDS011;36207;51.850;21.698;2023-03-05T11:12:01;13.90;;;6.10;;
50309;SDS011;36207;51.850;21.698;2023-03-05T11:14:45;15.70;;;6.40;;
50309;SDS011;36207;51.850;21.698;2023-03-05T11:17:27;13.10;;;6.40;;
50309;SDS011;36207;51.850;21.698;2023-03-05T11:28:29;11.30;;;5.30;;
50309;SDS011;36207;51.850;21.698;2023-03-05T11:33:35;13.20;;;5.90;;
50309;SDS011;36207;51.850;21.698;2023-03-05T11:36:12;15.00;;;6.30;;
50309;SDS011;36207;51.850;21.698;2023-03-05T11:41:22;13.00;;;5.50;;
50309;SDS011;36207;51.850;21.698;2023-03-05T11:43:52;15.70;;;6.40;;
50309;SDS011;36207;51.850;21.698;2023-03-05T11:46:19;14.40;;;6.20;;
50309;SDS011;36207;51.850;21.698;2023-03-05T11:48:46;15.90;;;6.30;;
50309;SDS011;36207;51.850;21.698;2023-03-05T11:51:25;12.40;;;5.90;;
50309;SDS011;36207;51.850;21.698;2023-03-05T11:54:04;14.50;;;5.50;;
50309;SDS011;36207;51.850;21.698;2023-03-05T11:56:35;12.60;;;5.50;;
50309;SDS011;36207;51.850;21.698;2023-03-05T12:01:46;14.10;;;5.90;;
50309;SDS011;36207;51.850;21.698;2023-03-05T12:04:14;15.70;;;6.30;;
50309;SDS011;36207;51.850;21.698;2023-03-05T12:09:24;14.60;;;6.30;;
50309;SDS011;36207;51.850;21.698;2023-03-05T12:11:54;14.00;;;6.10;;
50309;SDS011;36207;51.850;21.698;2023-03-05T12:14:45;12.50;;;6.10;;
50309;SDS011;36207;51.850;21.698;2023-03-05T12:17:38;12.50;;;6.10;;
50309;SDS011;36207;51.850;21.698;2023-03-05T12:20:13;14.00;;;6.00;;
50309;SDS011;36207;51.850;21.698;2023-03-05T12:22:47;17.80;;;5.90;;
50309;SDS011;36207;51.850;21.698;2023-03-05T12:25:31;15.20;;;6.30;;
50309;SDS011;36207;51.850;21.698;2023-03-05T12:27:59;14.90;;;6.40;;
50309;SDS011;36207;51.850;21.698;2023-03-05T12:33:32;12.80;;;5.90;;
50309;SDS011;36207;51.850;21.698;2023-03-05T12:38:47;14.00;;;6.40;;
50309;SDS011;36207;51.850;21.698;2023-03-05T12:46:30;13.90;;;6.70;;
50309;SDS011;36207;51.850;21.698;2023-03-05T12:48:58;15.20;;;6.90;;
50309;SDS011;36207;51.850;21.698;2023-03-05T12:51:28;13.90;;;6.90;;
50309;SDS011;36207;51.850;21.698;2023-03-05T12:54:26;12.40;;;6.70;;
50309;SDS011;36207;51.850;21.698;2023-03-05T12:57:05;17.20;;;7.50;;
50309;SDS011;36207;51.850;21.698;2023-03-05T13:02:27;16.40;;;7.70;;
50309;SDS011;36207;51.850;21.698;2023-03-05T13:04:59;15.40;;;7.40;;
50309;SDS011;36207;51.850;21.698;2023-03-05T13:07:28;18.80;;;7.80;;
50309;SDS011;36207;51.850;21.698;2023-03-05T13:09:55;16.20;;;8.10;;
50309;SDS011;36207;51.850;21.698;2023-03-05T13:12:25;16.00;;;7.50;;
50309;SDS011;36207;51.850;21.698;2023-03-05T13:14:57;15.80;;;7.70;;
50309;SDS011;36207;51.850;21.698;2023-03-05T13:17:29;21.50;;;7.70;;
50309;SDS011;36207;51.850;21.698;2023-03-05T13:20:22;16.40;;;7.70;;
50309;SDS011;36207;51.850;21.698;2023-03-05T13:23:01;14.80;;;6.90;;
50309;SDS011;36207;51.850;21.698;2023-03-05T13:25:28;14.00;;;7.00;;
50309;SDS011;36207;51.850;21.698;2023-03-05T13:28:01;15.50;;;6.90;;
50309;SDS011;36207;51.850;21.698;2023-03-05T13:30:34;15.40;;;7.00;;
50309;SDS011;36207;51.850;21.698;2023-03-05T13:33:01;13.60;;;6.90;;
50309;SDS011;36207;51.850;21.698;2023-03-05T13:35:31;14.60;;;7.10;;
50309;SDS011;36207;51.850;21.698;2023-03-05T13:37:58;14.30;;;7.10;;
50309;SDS011;36207;51.850;21.698;2023-03-05T13:40:28;16.90;;;7.40;;
50309;SDS011;36207;51.850;21.698;2023-03-05T13:43:07;15.50;;;7.40;;
50309;SDS011;36207;51.850;21.698;2023-03-05T13:45:37;16.60;;;7.60;;
50309;SDS011;36207;51.850;21.698;2023-03-05T13:48:04;14.10;;;6.80;;
50309;SDS011;36207;51.850;21.698;2023-03-05T13:50:37;16.70;;;7.40;;
50309;SDS011;36207;51.850;21.698;2023-03-05T13:53:24;13.50;;;6.90;;
50309;SDS011;36207;51.850;21.698;2023-03-05T13:56:02;14.40;;;6.70;;
50309;SDS011;36207;51.850;21.698;2023-03-05T14:01:23;14.70;;;6.80;;
50309;SDS011;36207;51.850;21.698;2023-03-05T14:03:57;14.70;;;6.90;;
50309;SDS011;36207;51.850;21.698;2023-03-05T14:06:27;13.20;;;7.20;;
50309;SDS011;36207;51.850;21.698;2023-03-05T14:09:29;16.80;;;7.20;;
50309;SDS011;36207;51.850;21.698;2023-03-05T14:15:00;16.20;;;8.10;;
50309;SDS011;36207;51.850;21.698;2023-03-05T14:17:39;14.60;;;6.90;;
50309;SDS011;36207;51.850;21.698;2023-03-05T14:20:21;15.30;;;7.00;;
50309;SDS011;36207;51.850;21.698;2023-03-05T14:22:50;14.90;;;7.20;;
50309;SDS011;36207;51.850;21.698;2023-03-05T14:25:29;14.60;;;7.70;;
50309;SDS011;36207;51.850;21.698;2023-03-05T14:27:58;15.40;;;8.10;;
50309;SDS011;36207;51.850;21.698;2023-03-05T14:30:46;18.90;;;8.40;;
50309;SDS011;36207;51.850;21.698;2023-03-05T14:33:27;15.40;;;7.40;;
50309;SDS011;36207;51.850;21.698;2023-03-05T14:35:56;16.20;;;8.20;;
50309;SDS011;36207;51.850;21.698;2023-03-05T14:38:25;20.30;;;9.30;;
50309;SDS011;36207;51.850;21.698;2023-03-05T14:40:54;16.80;;;9.20;;
50309;SDS011;36207;51.850;21.698;2023-03-05T14:43:20;20.10;;;10.50;;
50309;SDS011;36207;51.850;21.698;2023-03-05T14:45:47;21.00;;;11.40;;
50309;SDS011;36207;51.850;21.698;2023-03-05T14:48:13;22.60;;;11.80;;
50309;SDS011;36207;51.850;21.698;2023-03-05T14:50:45;23.70;;;11.00;;
50309;SDS011;36207;51.850;21.698;2023-03-05T14:53:23;18.20;;;10.20;;
50309;SDS011;36207;51.850;21.698;2023-03-05T14:55:53;19.50;;;11.10;;
50309;SDS011;36207;51.850;21.698;2023-03-05T14:58:23;19.60;;;11.10;;
50309;SDS011;36207;51.850;21.698;2023-03-05T15:00:52;22.10;;;11.80;;
50309;SDS011;36207;51.850;21.698;2023-03-05T15:03:20;23.60;;;12.40;;
50309;SDS011;36207;51.850;21.698;2023-03-05T15:05:47;22.30;;;11.90;;
50309;SDS011;36207;51.850;21.698;2023-03-05T15:10:46;21.40;;;12.50;;
50309;SDS011;36207;51.850;21.698;2023-03-05T15:13:13;24.80;;;13.50;;
50309;SDS011;36207;51.850;21.698;2023-03-05T15:15:40;25.30;;;13.50;;
50309;SDS011;36207;51.850;21.698;2023-03-05T15:18:14;27.80;;;15.30;;
50309;SDS011;36207;51.850;21.698;2023-03-05T15:20:42;26.50;;;14.70;;
50309;SDS011;36207;51.850;21.698;2023-03-05T15:23:09;24.00;;;13.70;;
50309;SDS011;36207;51.850;21.698;2023-03-05T15:25:37;23.40;;;14.10;;
50309;SDS011;36207;51.850;21.698;2023-03-05T15:28:03;25.90;;;13.80;;
50309;SDS011;36207;51.850;21.698;2023-03-05T15:30:31;22.90;;;12.40;;
50309;SDS011;36207;51.850;21.698;2023-03-05T15:33:05;23.50;;;12.50;;
50309;SDS011;36207;51.850;21.698;2023-03-05T15:35:33;25.40;;;13.10;;
50309;SDS011;36207;51.850;21.698;2023-03-05T15:38:00;25.60;;;13.30;;
50309;SDS011;36207;51.850;21.698;2023-03-05T15:40:26;23.20;;;12.00;;
50309;SDS011;36207;51.850;21.698;2023-03-05T15:42:53;21.90;;;11.50;;
50309;SDS011;36207;51.850;21.698;2023-03-05T15:45:20;22.40;;;11.60;;